Portada
METAR-TAF:

METAR-TAF

Aeroports :

Florianópolis, Santa Catarina, Brasil

latitud: 27-40S, longitud: 048-33W, altitud: 5 m

Observació

L'informe es va fer fa 51 minuts, a les 19:00 UTC
Vent 7 kt del Sud
Temperatura 16°C
Humitat 72%
Pressió 1016 hPa
Visibilitat 10 km o més
Cel ennuvolat a una alçada de 2000 ft

METAR: SBFL 011900Z 17007KT 9999 BKN020 16/11 Q1016

Hora: 16:51 (19:51 UTC)

Pronòstic

L'informe es va fer fa 4 hores i 51 minuts, a les 15:00 UTC
Pronòstic vàlid del 01 a les 18 UTC al 02 a les 18 UTC
Vent 10 kt del Sud
Visibilitat 10 km o més
Núvols disperses a una alçada de 2000 ft

TAF: SBFL 011500Z 0118/0218 17010KT 9999 SCT020 TX28/0119Z TN18/0208Z RMK PEI

Observacions i pronòstics meteorològics de més de 4000 aeroports (METAR i TAF).

Les estacions disponibles són els punts grocs i vermells al mapa.

Posi el ratolí al punt desitjat per veure el nom de l'estació.

Feu clic per veure les observacions i els pronòstics meteorològics.

Per canviar el mapa: feu clic els botons verds amb una creu de color negre per apropar; al botó verd amb un guió per allunyar la imatge; o en les fletxes verdes per a mapes adjacents.


METAR-TAF: